Terminal Aerodrome Forecast
Issued by NWS

Home | Current Version | Previous Version | Graphics & Text | Print | Product List | Glossary On
Versions: 1 2 3 4 5 6 7 8 9 10 11 12 13 14 15 16 17 18 19 20
000
FTUS43 KABR 171727
TAFATY
TAF
KATY 171727Z 1718/1818 28013G18KT P6SM SKC
     FM180400 VRB06KT 5SM BR FEW200
     FM181500 20004KT P6SM SCT150=

USA.gov is the U.S. government's official web portal to all federal, state and local government web resources and services.